Munich, North Dakota
Current Conditions -  °F | °C
As of 9:15 PM on Sunday 21 Dec 2014 (Local Time) from KD55 Reporting Station
Moderate Fog Moderate Fog  
Wind Chill: 23°   Ceiling: 100
Heat Index: 28°   Visibility: 0.5mi
Dew Point: 28°   Wind: 5mph
Humidity: 100%   Direction: 10°N
Pressure: 29.51"   Gusts: NA
Location:  48.67°N, 98.83°W
Report Text: KD55 220315Z AUTO 01004KT 1/2SM FZFG OVC001 M02/M02 A2951 RMK AO2
Loading
Personal Weather Stations






























Interactive Weather Map New forecast layout! Learn more

10-Day Weather Forecast

Advertisements
Track Severe Weather on mobile